Time;durP1;ratioP1;P1;durP2;ratioP2;P2;SDS_P1;SDS_P2;PMS_P1;PMS_P2;Temp;Humidity;BMP_temperature;BMP_pressure;BME280_temperature;BME280_humidity;BME280_pressure;Samples;Min_cycle;Max_cycle;Signal;HPM_P1;HPM_P2
2023/05/08 00:02:20;;;;;;;49.55;30.27;;;;;;;;;;5092349;28;20430;-67
2023/05/08 00:04:46;;;;;;;42.13;27.77;;;;;;;;;;5094049;28;20028;-66
2023/05/08 00:07:13;;;;;;;40.63;27.08;;;;;;;;;;5094071;28;20388;-67
2023/05/08 00:09:39;;;;;;;42.53;27.52;;;;;;;;;;5094138;28;20055;-69
2023/05/08 00:12:06;;;;;;;45.28;28.88;;;;;;;;;;5094139;28;20028;-67
2023/05/08 00:14:33;;;;;;;40.15;25.30;;;;;;;;;;5094000;28;20080;-67
2023/05/08 00:17:01;;;;;;;41.95;26.40;;;;;;;;;;5094025;28;20024;-65
2023/05/08 00:19:27;;;;;;;38.50;25.27;;;;;;;;;;5093890;28;20059;-67
2023/05/08 00:21:54;;;;;;;36.50;25.70;;;;;;;;;;5093856;28;20031;-67
2023/05/08 00:24:20;;;;;;;48.25;28.25;;;;;;;;;;5094097;28;20028;-66
2023/05/08 00:26:47;;;;;;;44.35;27.27;;;;;;;;;;5093950;28;20027;-67
2023/05/08 00:29:14;;;;;;;46.40;30.25;;;;;;;;;;5093742;28;20074;-67
2023/05/08 00:31:41;;;;;;;50.50;36.55;;;;;;;;;;5093935;28;20034;-68
2023/05/08 00:34:08;;;;;;;86.40;58.80;;;;;;;;;;5093750;28;20028;-67
2023/05/08 00:36:34;;;;;;;69.05;48.38;;;;;;;;;;5093617;28;20016;-67
2023/05/08 00:39:01;;;;;;;43.85;28.00;;;;;;;;;;5093681;28;20585;-67
2023/05/08 00:41:27;;;;;;;41.70;26.27;;;;;;;;;;5093770;28;20035;-66
2023/05/08 00:43:54;;;;;;;53.78;30.85;;;;;;;;;;5093612;28;20020;-66
2023/05/08 00:46:21;;;;;;;40.95;27.95;;;;;;;;;;5090756;28;20075;-65
2023/05/08 00:48:48;;;;;;;39.50;26.80;;;;;;;;;;5088231;28;20496;-65
2023/05/08 00:51:15;;;;;;;48.00;27.40;;;;;;;;;;5073382;28;20112;-66
2023/05/08 00:53:44;;;;;;;50.58;28.20;;;;;;;;;;5073732;28;20362;-67
2023/05/08 00:56:11;;;;;;;47.90;29.33;;;;;;;;;;5073299;28;20025;-66
2023/05/08 00:58:38;;;;;;;58.33;34.20;;;;;;;;;;5073146;28;20475;-64
2023/05/08 01:01:05;;;;;;;217.90;144.50;;;;;;;;;;5073140;28;20055;-68
2023/05/08 01:03:33;;;;;;;140.68;99.63;;;;;;;;;;5073326;28;20023;-68
2023/05/08 01:05:59;;;;;;;90.10;58.13;;;;;;;;;;5073254;28;20089;-66
2023/05/08 01:08:26;;;;;;;53.08;34.38;;;;;;;;;;5084431;28;20024;-67
2023/05/08 01:10:57;;;;;;;38.33;28.50;;;;;;;;;;5093279;28;20449;-67
2023/05/08 01:13:23;;;;;;;40.25;27.88;;;;;;;;;;5092947;28;20031;-67
2023/05/08 01:15:56;;;;;;;40.83;27.42;;;;;;;;;;5093047;28;20020;-66
2023/05/08 01:18:26;;;;;;;63.97;44.15;;;;;;;;;;5094529;28;20050;-69
2023/05/08 01:20:56;;;;;;;261.83;153.07;;;;;;;;;;5096941;28;20018;-66
2023/05/08 01:23:25;;;;;;;306.55;187.05;;;;;;;;;;5097024;28;20032;-67
2023/05/08 01:25:53;;;;;;;634.05;428.42;;;;;;;;;;5096986;28;20098;-68
2023/05/08 01:28:22;;;;;;;280.55;167.55;;;;;;;;;;5096786;28;20151;-68
2023/05/08 01:30:52;;;;;;;158.50;99.22;;;;;;;;;;5096840;28;20012;-65
2023/05/08 01:33:23;;;;;;;78.03;51.58;;;;;;;;;;5094280;28;20489;-67
2023/05/08 01:35:50;;;;;;;88.30;55.53;;;;;;;;;;5096773;28;20117;-66
2023/05/08 01:38:20;;;;;;;81.75;46.47;;;;;;;;;;5096613;28;20046;-67
2023/05/08 01:40:46;;;;;;;94.72;54.92;;;;;;;;;;5096683;28;20016;-67
2023/05/08 01:43:17;;;;;;;127.32;75.72;;;;;;;;;;5096527;28;20069;-67
2023/05/08 01:45:45;;;;;;;135.98;80.90;;;;;;;;;;5096524;28;20066;-70
2023/05/08 01:48:17;;;;;;;72.28;39.88;;;;;;;;;;5096045;28;20063;-67
2023/05/08 01:50:46;;;;;;;65.50;43.13;;;;;;;;;;5096576;28;20022;-68
2023/05/08 01:53:20;;;;;;;71.57;45.25;;;;;;;;;;5096574;28;20020;-67
2023/05/08 01:55:48;;;;;;;66.22;39.05;;;;;;;;;;5096426;28;20609;-67
2023/05/08 01:58:16;;;;;;;63.85;39.85;;;;;;;;;;5093723;28;20043;-66
2023/05/08 02:00:43;;;;;;;56.67;33.20;;;;;;;;;;5096013;28;20046;-66
2023/05/08 02:03:11;;;;;;;35.10;21.98;;;;;;;;;;5096302;28;20028;-71
2023/05/08 02:05:38;;;;;;;41.58;24.15;;;;;;;;;;5096429;28;20073;-66
2023/05/08 02:08:05;;;;;;;71.25;35.28;;;;;;;;;;5096327;28;20016;-67
2023/05/08 02:10:32;;;;;;;68.10;39.33;;;;;;;;;;5095980;28;20036;-67
2023/05/08 02:13:00;;;;;;;36.25;25.38;;;;;;;;;;5096211;28;20012;-67
2023/05/08 02:15:29;;;;;;;60.17;32.17;;;;;;;;;;5095914;28;20021;-66
2023/05/08 02:17:56;;;;;;;269.85;185.82;;;;;;;;;;5095922;28;20073;-67
2023/05/08 02:20:22;;;;;;;83.18;45.85;;;;;;;;;;5096067;28;20012;-66
2023/05/08 02:22:50;;;;;;;61.53;38.25;;;;;;;;;;5095820;28;20024;-64
2023/05/08 02:25:17;;;;;;;67.45;42.35;;;;;;;;;;5093418;28;20099;-67
2023/05/08 02:27:46;;;;;;;78.75;47.45;;;;;;;;;;5095701;28;20016;-67
2023/05/08 02:30:15;;;;;;;53.30;30.13;;;;;;;;;;5095570;28;20532;-67
2023/05/08 02:32:44;;;;;;;65.75;37.92;;;;;;;;;;5095770;28;20020;-65
2023/05/08 02:35:13;;;;;;;47.83;31.17;;;;;;;;;;5095531;28;20024;-66
2023/05/08 02:37:41;;;;;;;67.65;42.50;;;;;;;;;;5095492;28;20451;-67
2023/05/08 02:40:09;;;;;;;59.42;35.13;;;;;;;;;;5095547;28;20465;-67
2023/05/08 02:42:35;;;;;;;81.85;56.45;;;;;;;;;;5092806;28;20020;-66
2023/05/08 02:45:02;;;;;;;71.78;46.42;;;;;;;;;;5095499;28;20020;-67
2023/05/08 02:47:39;;;;;;;36.40;24.10;;;;;;;;;;5095816;28;20024;-67
2023/05/08 02:50:08;;;;;;;47.90;26.52;;;;;;;;;;5095784;28;20023;-67
2023/05/08 02:52:41;;;;;;;47.28;30.38;;;;;;;;;;5095769;28;20020;-69
2023/05/08 02:55:20;;;;;;;37.53;26.02;;;;;;;;;;5095344;28;20024;-65
2023/05/08 02:57:48;;;;;;;74.10;50.88;;;;;;;;;;5095424;28;20024;-67
2023/05/08 03:00:17;;;;;;;62.60;39.17;;;;;;;;;;5095044;28;20040;-69
2023/05/08 03:02:49;;;;;;;48.42;33.45;;;;;;;;;;5095564;28;20020;-66
2023/05/08 03:05:19;;;;;;;36.00;24.95;;;;;;;;;;5095409;28;20110;-67
2023/05/08 03:07:49;;;;;;;41.58;24.70;;;;;;;;;;5095738;28;20032;-67
2023/05/08 03:10:16;;;;;;;60.35;39.55;;;;;;;;;;5095410;28;20028;-67
2023/05/08 03:12:45;;;;;;;86.80;58.53;;;;;;;;;;5095246;28;20503;-68
2023/05/08 03:15:15;;;;;;;48.10;32.40;;;;;;;;;;5095049;28;20032;-68
2023/05/08 03:17:42;;;;;;;44.45;26.67;;;;;;;;;;5090788;28;20111;-67
2023/05/08 03:20:12;;;;;;;57.42;45.65;;;;;;;;;;5095275;28;20024;-66
2023/05/08 03:22:39;;;;;;;36.13;26.25;;;;;;;;;;5092190;28;20035;-66
2023/05/08 03:25:07;;;;;;;43.03;30.30;;;;;;;;;;5094828;28;20080;-66
2023/05/08 03:27:34;;;;;;;29.95;17.10;;;;;;;;;;5094849;28;20065;-67
2023/05/08 03:30:02;;;;;;;49.80;38.58;;;;;;;;;;5095197;28;20021;-67
2023/05/08 03:32:29;;;;;;;34.92;19.77;;;;;;;;;;5094567;28;20024;-66
2023/05/08 03:34:58;;;;;;;31.83;21.70;;;;;;;;;;5094544;28;20028;-67
2023/05/08 03:37:27;;;;;;;48.85;37.00;;;;;;;;;;5094441;28;20370;-67
2023/05/08 03:39:54;;;;;;;76.72;54.80;;;;;;;;;;5093716;28;20013;-67
2023/05/08 03:42:22;;;;;;;42.05;23.90;;;;;;;;;;5094465;28;20376;-67
2023/05/08 03:44:52;;;;;;;33.25;19.13;;;;;;;;;;5094383;28;20091;-67
2023/05/08 03:47:19;;;;;;;27.15;17.75;;;;;;;;;;5091740;28;20019;-67
2023/05/08 03:49:47;;;;;;;33.75;19.40;;;;;;;;;;5094267;28;20030;-67
2023/05/08 03:52:14;;;;;;;35.78;18.73;;;;;;;;;;5094168;28;20056;-67
2023/05/08 03:54:41;;;;;;;35.88;19.75;;;;;;;;;;5094103;28;20024;-72
2023/05/08 03:57:08;;;;;;;35.58;19.75;;;;;;;;;;5094350;28;20051;-71
2023/05/08 03:59:35;;;;;;;45.15;28.40;;;;;;;;;;5094112;28;20064;-71
2023/05/08 04:02:05;;;;;;;36.65;21.05;;;;;;;;;;5094820;28;20075;-71
2023/05/08 04:04:40;;;;;;;28.42;19.08;;;;;;;;;;5084796;28;20389;-70
2023/05/08 04:07:27;;;;;;;30.50;18.90;;;;;;;;;;5092987;28;20039;-71
2023/05/08 04:09:59;;;;;;;34.53;20.33;;;;;;;;;;5093753;28;20016;-69
2023/05/08 04:12:28;;;;;;;26.15;18.65;;;;;;;;;;5093432;28;20020;-68
2023/05/08 04:14:56;;;;;;;25.50;17.58;;;;;;;;;;5093720;28;20032;-68
2023/05/08 04:17:28;;;;;;;23.58;14.60;;;;;;;;;;5091880;28;20477;-68
2023/05/08 04:19:58;;;;;;;27.58;15.00;;;;;;;;;;5086436;22;20068;-67
2023/05/08 04:22:25;;;;;;;23.90;15.45;;;;;;;;;;5052757;28;20029;-68
2023/05/08 04:24:55;;;;;;;22.10;14.93;;;;;;;;;;5049343;28;20044;-67
2023/05/08 04:27:21;;;;;;;18.65;12.57;;;;;;;;;;5052040;28;20091;-66
2023/05/08 04:29:48;;;;;;;20.83;12.68;;;;;;;;;;5051683;28;20024;-66
2023/05/08 04:32:16;;;;;;;22.17;12.75;;;;;;;;;;5052060;28;20467;-67
2023/05/08 04:34:42;;;;;;;20.83;13.65;;;;;;;;;;5052329;28;20064;-68
2023/05/08 04:37:09;;;;;;;18.33;12.77;;;;;;;;;;5053320;28;20013;-67
2023/05/08 04:39:35;;;;;;;20.52;12.65;;;;;;;;;;5053624;28;20021;-70
2023/05/08 04:42:03;;;;;;;21.77;12.52;;;;;;;;;;5050135;28;20021;-68
2023/05/08 04:44:31;;;;;;;19.88;11.15;;;;;;;;;;5053420;28;20025;-69
2023/05/08 04:46:57;;;;;;;25.75;11.60;;;;;;;;;;5053534;28;20435;-69
2023/05/08 04:49:24;;;;;;;14.68;10.73;;;;;;;;;;5053468;28;20456;-66
2023/05/08 04:51:50;;;;;;;17.00;10.38;;;;;;;;;;5052314;28;20381;-70
2023/05/08 04:54:17;;;;;;;18.40;10.13;;;;;;;;;;5052909;28;20108;-68
2023/05/08 04:56:44;;;;;;;13.60;9.02;;;;;;;;;;5053044;28;20512;-67
2023/05/08 04:59:10;;;;;;;25.10;10.05;;;;;;;;;;5052854;28;20063;-67
2023/05/08 05:01:37;;;;;;;33.25;10.13;;;;;;;;;;5052987;28;20020;-69
2023/05/08 05:04:03;;;;;;;32.25;11.77;;;;;;;;;;5052415;28;20023;-70
2023/05/08 05:06:30;;;;;;;18.70;10.52;;;;;;;;;;5052599;28;20052;-70
2023/05/08 05:08:57;;;;;;;17.58;9.57;;;;;;;;;;5052683;28;20025;-68
2023/05/08 05:11:23;;;;;;;25.15;9.68;;;;;;;;;;5052991;28;20028;-68
2023/05/08 05:13:50;;;;;;;27.60;8.85;;;;;;;;;;5052487;28;20512;-67
2023/05/08 05:16:17;;;;;;;21.92;8.25;;;;;;;;;;5052451;28;20035;-68
2023/05/08 05:18:43;;;;;;;17.80;9.13;;;;;;;;;;5052530;28;20051;-66
2023/05/08 05:21:10;;;;;;;25.52;9.27;;;;;;;;;;5052540;28;20025;-68
2023/05/08 05:23:37;;;;;;;16.50;8.73;;;;;;;;;;5052360;28;20048;-69
2023/05/08 05:26:03;;;;;;;21.27;8.68;;;;;;;;;;5053549;28;20029;-69
2023/05/08 05:28:30;;;;;;;12.95;8.15;;;;;;;;;;5051807;28;20421;-69
2023/05/08 05:30:59;;;;;;;15.00;9.85;;;;;;;;;;5075702;23;20108;-69
2023/05/08 05:33:26;;;;;;;33.33;10.18;;;;;;;;;;5104251;28;20040;-69
2023/05/08 05:35:53;;;;;;;49.10;9.45;;;;;;;;;;5101109;28;20058;-69
2023/05/08 05:38:19;;;;;;;11.45;7.13;;;;;;;;;;5086691;28;20017;-70
2023/05/08 05:40:46;;;;;;;16.58;7.97;;;;;;;;;;5085766;28;20048;-70
2023/05/08 05:43:13;;;;;;;10.63;6.55;;;;;;;;;;5084720;28;20020;-70
2023/05/08 05:45:40;;;;;;;11.70;7.38;;;;;;;;;;5082029;28;20012;-69
2023/05/08 05:48:06;;;;;;;8.30;5.28;;;;;;;;;;5083903;28;20020;-69
2023/05/08 05:50:33;;;;;;;12.85;7.15;;;;;;;;;;5082791;28;20047;-69
2023/05/08 05:52:59;;;;;;;17.27;9.15;;;;;;;;;;5082197;28;20031;-67
2023/05/08 05:55:27;;;;;;;39.03;25.88;;;;;;;;;;5083666;28;20038;-68
2023/05/08 05:57:53;;;;;;;29.65;19.00;;;;;;;;;;5082823;28;20009;-67
2023/05/08 06:00:20;;;;;;;68.22;44.38;;;;;;;;;;5080848;28;20430;-68
2023/05/08 06:02:47;;;;;;;37.30;26.05;;;;;;;;;;5083422;28;20020;-69
2023/05/08 06:05:14;;;;;;;21.00;12.98;;;;;;;;;;5083547;28;20139;-68
2023/05/08 06:07:40;;;;;;;16.50;8.80;;;;;;;;;;5085315;28;20016;-69
2023/05/08 06:10:07;;;;;;;15.23;9.90;;;;;;;;;;5086614;28;20024;-68
2023/05/08 06:12:34;;;;;;;18.42;9.50;;;;;;;;;;5085511;28;20026;-68
2023/05/08 06:15:01;;;;;;;12.95;8.57;;;;;;;;;;5084684;28;20154;-68
2023/05/08 06:17:28;;;;;;;12.30;7.72;;;;;;;;;;5081999;28;20063;-69
2023/05/08 06:19:55;;;;;;;14.98;9.10;;;;;;;;;;5085660;28;20055;-68
2023/05/08 06:22:23;;;;;;;19.25;12.82;;;;;;;;;;5086401;28;20087;-68
2023/05/08 06:24:52;;;;;;;10.10;7.07;;;;;;;;;;5081763;28;20032;-68
2023/05/08 06:27:20;;;;;;;20.40;10.20;;;;;;;;;;5084885;28;20024;-68
2023/05/08 06:29:49;;;;;;;26.88;12.15;;;;;;;;;;5086131;28;20350;-68
2023/05/08 06:32:16;;;;;;;20.05;9.45;;;;;;;;;;5085213;28;20040;-68
2023/05/08 06:34:43;;;;;;;20.00;10.90;;;;;;;;;;5084018;28;20520;-68
2023/05/08 06:37:09;;;;;;;16.33;10.18;;;;;;;;;;5084891;28;20054;-71
2023/05/08 06:39:36;;;;;;;16.50;9.50;;;;;;;;;;5096092;28;20477;-69
2023/05/08 06:42:05;;;;;;;15.13;8.38;;;;;;;;;;5076256;28;20021;-69
2023/05/08 06:44:32;;;;;;;9.25;6.65;;;;;;;;;;5077459;28;20491;-68
2023/05/08 06:46:59;;;;;;;10.88;4.88;;;;;;;;;;5083641;28;20032;-68
2023/05/08 06:49:25;;;;;;;10.70;7.10;;;;;;;;;;5085476;28;20031;-68
2023/05/08 06:51:52;;;;;;;29.70;14.65;;;;;;;;;;5085291;28;20047;-68
2023/05/08 06:54:19;;;;;;;19.20;11.55;;;;;;;;;;5083510;28;20024;-68
2023/05/08 06:56:46;;;;;;;12.77;7.57;;;;;;;;;;5086293;28;20020;-69
2023/05/08 06:59:12;;;;;;;27.20;13.40;;;;;;;;;;5083977;28;20075;-69
2023/05/08 07:01:40;;;;;;;13.63;8.35;;;;;;;;;;5085462;28;20017;-70
2023/05/08 07:04:07;;;;;;;13.20;7.03;;;;;;;;;;5083796;28;20031;-70
2023/05/08 07:06:33;;;;;;;12.57;8.60;;;;;;;;;;5083873;28;20034;-70
2023/05/08 07:09:00;;;;;;;10.68;6.60;;;;;;;;;;5085243;28;20016;-68
2023/05/08 07:11:26;;;;;;;14.65;7.50;;;;;;;;;;5083756;28;20350;-68
2023/05/08 07:13:53;;;;;;;14.02;7.40;;;;;;;;;;5081708;28;20039;-68
2023/05/08 07:16:20;;;;;;;19.13;7.80;;;;;;;;;;5081846;28;20031;-68
2023/05/08 07:18:46;;;;;;;12.90;7.20;;;;;;;;;;5084024;28;20078;-67
2023/05/08 07:21:14;;;;;;;8.60;6.63;;;;;;;;;;5082597;28;20086;-67
2023/05/08 07:23:41;;;;;;;14.98;7.57;;;;;;;;;;5084058;28;20041;-68
2023/05/08 07:26:08;;;;;;;9.63;6.95;;;;;;;;;;5084867;28;20033;-67
2023/05/08 07:28:34;;;;;;;12.65;8.18;;;;;;;;;;5085818;28;20031;-69
2023/05/08 07:31:05;;;;;;;12.75;6.93;;;;;;;;;;5084334;28;20082;-70
2023/05/08 07:33:33;;;;;;;10.98;7.38;;;;;;;;;;5084818;28;20485;-70
2023/05/08 07:36:00;;;;;;;81.72;63.33;;;;;;;;;;5080335;28;20029;-69
2023/05/08 07:38:27;;;;;;;16.75;10.70;;;;;;;;;;5083278;28;20069;-66
2023/05/08 07:40:56;;;;;;;14.25;8.32;;;;;;;;;;5074331;28;20482;-67
2023/05/08 07:43:23;;;;;;;45.60;34.60;;;;;;;;;;5074465;28;20029;-67
2023/05/08 07:45:50;;;;;;;16.40;9.43;;;;;;;;;;5079820;28;20032;-66
2023/05/08 07:48:17;;;;;;;11.48;7.68;;;;;;;;;;5083429;28;20032;-66
2023/05/08 07:50:44;;;;;;;21.30;9.20;;;;;;;;;;5084028;28;20031;-66
2023/05/08 07:53:11;;;;;;;12.05;8.35;;;;;;;;;;5082497;28;20024;-66
2023/05/08 07:55:37;;;;;;;15.43;7.68;;;;;;;;;;5083232;28;20024;-67
2023/05/08 07:58:04;;;;;;;17.77;9.88;;;;;;;;;;5083302;28;20451;-68
2023/05/08 08:00:31;;;;;;;19.17;11.13;;;;;;;;;;5084455;28;20043;-68
2023/05/08 08:02:57;;;;;;;18.67;11.15;;;;;;;;;;5078940;28;20060;-70
2023/05/08 08:05:24;;;;;;;21.08;12.20;;;;;;;;;;5085068;28;20586;-67
2023/05/08 08:07:51;;;;;;;33.78;13.93;;;;;;;;;;5084266;28;20103;-69
2023/05/08 08:10:17;;;;;;;16.13;9.02;;;;;;;;;;5081469;28;20023;-66
2023/05/08 08:12:44;;;;;;;35.40;22.17;;;;;;;;;;5074009;28;20059;-68
2023/05/08 08:15:11;;;;;;;47.88;33.08;;;;;;;;;;5084143;28;20553;-69
2023/05/08 08:17:37;;;;;;;28.55;17.92;;;;;;;;;;5076946;28;20496;-70
2023/05/08 08:20:04;;;;;;;18.10;10.00;;;;;;;;;;5073289;28;20466;-69
2023/05/08 08:22:31;;;;;;;10.55;6.55;;;;;;;;;;5072756;28;20045;-68
2023/05/08 08:24:58;;;;;;;9.27;5.82;;;;;;;;;;5060065;28;20021;-69
2023/05/08 08:27:24;;;;;;;10.75;5.90;;;;;;;;;;5052491;28;20040;-67
2023/05/08 08:29:51;;;;;;;10.45;6.68;;;;;;;;;;5052760;28;20025;-68
2023/05/08 08:32:18;;;;;;;15.23;8.32;;;;;;;;;;5052333;28;20044;-68
2023/05/08 08:34:44;;;;;;;15.30;8.18;;;;;;;;;;5052414;28;20036;-69
2023/05/08 08:37:11;;;;;;;16.67;9.23;;;;;;;;;;5054091;28;20040;-66
2023/05/08 08:39:37;;;;;;;14.80;9.23;;;;;;;;;;5052536;28;20024;-68
2023/05/08 08:42:04;;;;;;;11.27;5.20;;;;;;;;;;5056362;28;20032;-69
2023/05/08 08:44:31;;;;;;;11.55;5.07;;;;;;;;;;5070623;28;20497;-69
2023/05/08 08:46:59;;;;;;;7.13;4.78;;;;;;;;;;5070934;28;20127;-69
2023/05/08 08:49:29;;;;;;;13.95;4.78;;;;;;;;;;5062371;28;20031;-69
2023/05/08 08:51:59;;;;;;;8.15;4.40;;;;;;;;;;5056185;28;20017;-68
2023/05/08 08:54:28;;;;;;;10.50;3.85;;;;;;;;;;5052709;28;20017;-68
2023/05/08 08:56:55;;;;;;;6.45;4.50;;;;;;;;;;5053408;28;20029;-69
2023/05/08 08:59:23;;;;;;;20.88;12.00;;;;;;;;;;5059450;28;20024;-68
2023/05/08 09:01:55;;;;;;;24.77;16.73;;;;;;;;;;5072578;28;20096;-69
2023/05/08 09:04:26;;;;;;;;;;;;;;;;;;5073089;28;20022;-70
2023/05/08 09:06:53;;;;;;;11.38;6.28;;;;;;;;;;5071297;28;19912;-70
2023/05/08 09:09:21;;;;;;;14.95;7.65;;;;;;;;;;5073187;28;20485;-72
2023/05/08 09:11:48;;;;;;;11.15;7.05;;;;;;;;;;5080478;28;20056;-70
2023/05/08 09:14:14;;;;;;;12.95;7.78;;;;;;;;;;5077129;28;20115;-70
2023/05/08 09:16:44;;;;;;;12.15;8.32;;;;;;;;;;5071368;28;20017;-71
2023/05/08 09:19:14;;;;;;;16.70;8.02;;;;;;;;;;5071139;28;20059;-71
2023/05/08 09:21:41;;;;;;;14.77;8.57;;;;;;;;;;5068490;28;20370;-69
2023/05/08 09:24:08;;;;;;;14.90;8.98;;;;;;;;;;5070892;28;20047;-69
2023/05/08 09:26:36;;;;;;;21.95;12.00;;;;;;;;;;5071710;28;20120;-69
2023/05/08 09:29:23;;;;;;;41.42;21.98;;;;;;;;;;5077943;28;20028;-69
2023/05/08 09:31:50;;;;;;;18.23;11.23;;;;;;;;;;5076655;28;20040;-69
2023/05/08 09:34:20;;;;;;;30.95;18.52;;;;;;;;;;5073598;28;20107;-69
2023/05/08 09:36:46;;;;;;;81.72;56.75;;;;;;;;;;5074719;28;20048;-66
2023/05/08 09:39:21;;;;;;;229.55;158.50;;;;;;;;;;5086031;28;20020;-68
2023/05/08 09:41:50;;;;;;;75.40;51.13;;;;;;;;;;5085857;28;20044;-68
2023/05/08 09:44:17;;;;;;;114.40;69.05;;;;;;;;;;5088004;28;20514;-68
2023/05/08 09:46:45;;;;;;;122.93;82.72;;;;;;;;;;5088278;28;20055;-68
2023/05/08 09:49:17;;;;;;;145.90;97.43;;;;;;;;;;5082782;28;20032;-68
2023/05/08 09:51:43;;;;;;;;;;;;;;;;;;5083167;28;20027;-70
2023/05/08 09:54:17;;;;;;;115.43;70.70;;;;;;;;;;5076553;28;20410;-68
2023/05/08 09:56:44;;;;;;;136.05;84.55;;;;;;;;;;5082822;28;20086;-70
2023/05/08 09:59:13;;;;;;;116.60;70.43;;;;;;;;;;5085539;28;20028;-69
2023/05/08 10:01:40;;;;;;;72.90;40.30;;;;;;;;;;5086939;28;20020;-70
2023/05/08 10:04:07;;;;;;;99.22;54.60;;;;;;;;;;5079434;28;20024;-70
2023/05/08 10:06:35;;;;;;;70.93;38.65;;;;;;;;;;5082353;28;20029;-71
2023/05/08 10:11:33;;;;;;;;;;;;;;;;;;5079429;28;20048;-69
2023/05/08 10:14:00;;;;;;;86.63;45.75;;;;;;;;;;5082415;28;20397;-69
2023/05/08 10:16:28;;;;;;;68.07;39.33;;;;;;;;;;5081009;28;20036;-70
2023/05/08 10:18:59;;;;;;;68.97;34.10;;;;;;;;;;5079167;28;20028;-71
2023/05/08 10:21:29;;;;;;;51.90;24.95;;;;;;;;;;5078496;28;20021;-69
2023/05/08 10:23:57;;;;;;;40.33;22.15;;;;;;;;;;5079470;28;20111;-69
2023/05/08 10:26:29;;;;;;;57.20;27.35;;;;;;;;;;5080491;28;20489;-69
2023/05/08 10:28:56;;;;;;;43.00;24.23;;;;;;;;;;5084417;28;20385;-68
2023/05/08 10:31:27;;;;;;;39.75;20.63;;;;;;;;;;5082330;28;20035;-68
2023/05/08 10:33:55;;;;;;;53.05;25.80;;;;;;;;;;5081575;28;20517;-69
2023/05/08 10:36:23;;;;;;;49.78;24.70;;;;;;;;;;5082267;28;20432;-69
2023/05/08 10:38:50;;;;;;;88.22;56.38;;;;;;;;;;5080218;28;20094;-69
2023/05/08 10:41:17;;;;;;;71.28;42.97;;;;;;;;;;5085296;28;20012;-69
2023/05/08 10:43:43;;;;;;;80.43;39.22;;;;;;;;;;5082137;28;20020;-69
2023/05/08 10:46:12;;;;;;;65.05;44.42;;;;;;;;;;5083930;28;20025;-69
2023/05/08 10:48:46;;;;;;;59.85;39.50;;;;;;;;;;5084515;28;20023;-69
2023/05/08 10:51:13;;;;;;;46.88;26.02;;;;;;;;;;5082495;28;20024;-69
2023/05/08 10:53:43;;;;;;;107.43;57.67;;;;;;;;;;5084451;28;20545;-69
2023/05/08 10:56:10;;;;;;;66.60;40.70;;;;;;;;;;5081780;28;20446;-69
2023/05/08 10:58:39;;;;;;;75.18;47.38;;;;;;;;;;5084357;28;20099;-67
2023/05/08 11:01:07;;;;;;;56.70;31.55;;;;;;;;;;5085404;28;20056;-70
2023/05/08 11:03:36;;;;;;;55.28;30.75;;;;;;;;;;5083088;28;20081;-69
2023/05/08 11:06:03;;;;;;;74.40;39.40;;;;;;;;;;5085595;28;20028;-69
2023/05/08 11:08:31;;;;;;;221.25;164.07;;;;;;;;;;5081240;28;20020;-70
2023/05/08 11:11:00;;;;;;;83.75;53.25;;;;;;;;;;5115485;22;20122;-69
2023/05/08 11:13:29;;;;;;;59.10;37.63;;;;;;;;;;5114968;28;20050;-71
2023/05/08 11:15:55;;;;;;;44.08;23.13;;;;;;;;;;5114998;28;20049;-71
2023/05/08 11:18:23;;;;;;;31.38;16.75;;;;;;;;;;5115020;28;20019;-73
2023/05/08 11:20:52;;;;;;;44.08;23.02;;;;;;;;;;5111792;28;20400;-70
2023/05/08 11:23:21;;;;;;;39.08;20.55;;;;;;;;;;5113588;28;20483;-71
2023/05/08 11:25:48;;;;;;;32.85;19.08;;;;;;;;;;5114610;28;20024;-70
2023/05/08 11:28:16;;;;;;;31.80;16.60;;;;;;;;;;5112662;28;20024;-70
2023/05/08 11:30:44;;;;;;;47.25;26.23;;;;;;;;;;5114742;28;20020;-68
2023/05/08 11:33:11;;;;;;;44.50;24.45;;;;;;;;;;5111885;28;20019;-70
2023/05/08 11:35:40;;;;;;;43.70;24.85;;;;;;;;;;5114432;28;20429;-74
2023/05/08 11:38:10;;;;;;;34.50;20.98;;;;;;;;;;5114412;28;20019;-73
2023/05/08 11:40:39;;;;;;;31.48;15.98;;;;;;;;;;5114386;28;20016;-70
2023/05/08 11:43:19;;;;;;;37.70;18.42;;;;;;;;;;5114186;28;20031;-68
2023/05/08 11:45:46;;;;;;;27.40;15.45;;;;;;;;;;5114230;28;20095;-71
2023/05/08 11:48:14;;;;;;;25.67;14.57;;;;;;;;;;5113731;28;20023;-72
2023/05/08 11:50:41;;;;;;;20.98;11.65;;;;;;;;;;5113392;28;20026;-70
2023/05/08 11:53:07;;;;;;;22.33;12.73;;;;;;;;;;5113191;28;20560;-69
2023/05/08 11:55:34;;;;;;;23.13;13.38;;;;;;;;;;5113650;28;20105;-68
2023/05/08 11:58:01;;;;;;;52.75;21.73;;;;;;;;;;5113966;28;20023;-69
2023/05/08 12:00:27;;;;;;;45.70;22.42;;;;;;;;;;5113475;28;20032;-70
2023/05/08 12:02:54;;;;;;;56.08;28.65;;;;;;;;;;5114584;28;20023;-70
2023/05/08 12:05:27;;;;;;;37.72;19.02;;;;;;;;;;5115371;28;20016;-68
2023/05/08 12:07:53;;;;;;;26.10;13.10;;;;;;;;;;5114324;28;20031;-70
2023/05/08 12:10:20;;;;;;;28.80;14.93;;;;;;;;;;5113760;28;20035;-70
2023/05/08 12:12:47;;;;;;;26.83;13.57;;;;;;;;;;5109482;28;20028;-70
2023/05/08 12:15:14;;;;;;;25.92;13.98;;;;;;;;;;5113602;28;20034;-70
2023/05/08 12:17:41;;;;;;;29.67;17.23;;;;;;;;;;5113936;28;20020;-71
2023/05/08 12:20:11;;;;;;;33.10;16.60;;;;;;;;;;5114069;28;20016;-71
2023/05/08 12:22:39;;;;;;;32.33;18.52;;;;;;;;;;5110389;28;20042;-70
2023/05/08 12:25:10;;;;;;;33.88;18.02;;;;;;;;;;5112574;28;20031;-70
2023/05/08 12:27:37;;;;;;;49.85;27.13;;;;;;;;;;5112942;28;21105;-70
2023/05/08 12:30:07;;;;;;;57.55;26.27;;;;;;;;;;5110534;28;20054;-72
2023/05/08 12:32:34;;;;;;;40.85;22.08;;;;;;;;;;5114030;28;20030;-69
2023/05/08 12:35:01;;;;;;;37.55;20.70;;;;;;;;;;5112696;28;20024;-68
2023/05/08 12:37:28;;;;;;;57.88;33.10;;;;;;;;;;5112554;28;20076;-68
2023/05/08 12:39:55;;;;;;;129.35;89.85;;;;;;;;;;5112679;28;20095;-70
2023/05/08 12:42:21;;;;;;;135.10;90.38;;;;;;;;;;5107616;28;20024;-70
2023/05/08 12:44:51;;;;;;;39.70;28.55;;;;;;;;;;5109854;28;20020;-69
2023/05/08 12:47:19;;;;;;;43.97;29.40;;;;;;;;;;5112103;28;20118;-71
2023/05/08 12:49:49;;;;;;;40.90;23.10;;;;;;;;;;5109576;28;20032;-68
2023/05/08 12:52:17;;;;;;;39.42;21.85;;;;;;;;;;5112044;28;20556;-68
2023/05/08 12:54:47;;;;;;;36.25;18.45;;;;;;;;;;5111998;28;20114;-67
2023/05/08 12:57:15;;;;;;;29.05;14.93;;;;;;;;;;5112277;28;20354;-67
2023/05/08 12:59:42;;;;;;;26.25;12.77;;;;;;;;;;5112291;28;20024;-68
2023/05/08 13:02:11;;;;;;;27.85;12.27;;;;;;;;;;5112973;28;20015;-69
2023/05/08 13:04:38;;;;;;;26.02;13.02;;;;;;;;;;5111415;28;20020;-67
2023/05/08 13:07:04;;;;;;;25.30;13.75;;;;;;;;;;5108096;28;20008;-69
2023/05/08 13:09:31;;;;;;;28.13;15.85;;;;;;;;;;5113936;28;20012;-67
2023/05/08 13:11:58;;;;;;;33.13;15.93;;;;;;;;;;5113572;28;20047;-67
2023/05/08 13:14:25;;;;;;;30.02;15.50;;;;;;;;;;5110470;28;20020;-67
2023/05/08 13:16:51;;;;;;;28.83;14.38;;;;;;;;;;5116666;28;20039;-67
2023/05/08 13:19:18;;;;;;;27.70;15.73;;;;;;;;;;5117684;28;20019;-69
2023/05/08 13:21:46;;;;;;;30.60;15.52;;;;;;;;;;5117500;28;20020;-69
2023/05/08 13:24:13;;;;;;;26.67;14.32;;;;;;;;;;5117742;28;20019;-68
2023/05/08 13:26:40;;;;;;;29.17;15.77;;;;;;;;;;5117567;28;20495;-68
2023/05/08 13:29:07;;;;;;;26.92;15.88;;;;;;;;;;5117436;28;20039;-69
2023/05/08 13:31:34;;;;;;;43.03;25.90;;;;;;;;;;5117750;28;20357;-68
2023/05/08 13:34:00;;;;;;;46.30;27.42;;;;;;;;;;5117492;28;20054;-67
2023/05/08 13:36:27;;;;;;;98.50;79.95;;;;;;;;;;5117262;28;20370;-69
2023/05/08 13:38:56;;;;;;;71.97;42.95;;;;;;;;;;5117335;28;20478;-68
2023/05/08 13:41:22;;;;;;;47.30;26.98;;;;;;;;;;5117313;28;20086;-68
2023/05/08 13:43:49;;;;;;;54.53;26.58;;;;;;;;;;5117021;28;20031;-70
2023/05/08 13:46:15;;;;;;;84.53;46.05;;;;;;;;;;5117247;28;20107;-68
2023/05/08 13:48:42;;;;;;;140.18;87.70;;;;;;;;;;5117167;28;20031;-67
2023/05/08 13:51:09;;;;;;;99.65;57.40;;;;;;;;;;5114925;28;20038;-68
2023/05/08 13:53:35;;;;;;;59.08;33.30;;;;;;;;;;5113867;28;20042;-68
2023/05/08 13:56:02;;;;;;;47.08;23.40;;;;;;;;;;5112231;28;20146;-68
2023/05/08 13:58:28;;;;;;;43.95;23.23;;;;;;;;;;5116604;28;20140;-69
2023/05/08 14:00:55;;;;;;;56.40;32.83;;;;;;;;;;5112663;28;20040;-68
2023/05/08 14:03:22;;;;;;;55.60;31.88;;;;;;;;;;5115526;28;20464;-68
2023/05/08 14:05:48;;;;;;;75.30;35.53;;;;;;;;;;5116934;28;20027;-69
2023/05/08 14:08:15;;;;;;;71.97;32.70;;;;;;;;;;5116227;28;20516;-68
2023/05/08 14:10:41;;;;;;;42.15;19.63;;;;;;;;;;5116772;28;20039;-69
2023/05/08 14:13:08;;;;;;;45.35;20.63;;;;;;;;;;5116784;28;21045;-68
2023/05/08 14:15:35;;;;;;;41.67;17.42;;;;;;;;;;5114025;28;20019;-68
2023/05/08 14:18:01;;;;;;;43.97;17.75;;;;;;;;;;5116743;28;20102;-67
2023/05/08 14:20:28;;;;;;;37.88;15.20;;;;;;;;;;5114259;28;20099;-67
2023/05/08 14:22:54;;;;;;;31.45;14.02;;;;;;;;;;5115466;28;20075;-67
2023/05/08 14:25:21;;;;;;;24.65;11.32;;;;;;;;;;5116204;28;20047;-68
2023/05/08 14:27:48;;;;;;;18.90;9.73;;;;;;;;;;5116355;28;20145;-68